createdAt,value
2019-01-29T00:02:24.917Z,1.50
2019-01-29T00:04:53.224Z,1.20
2019-01-29T00:07:21.614Z,1.40
2019-01-29T00:09:50.013Z,1.10
2019-01-29T00:12:18.396Z,1.13
2019-01-29T00:14:46.821Z,1.60
2019-01-29T00:17:15.278Z,1.53
2019-01-29T00:19:43.662Z,1.40
2019-01-29T00:22:12.021Z,1.53
2019-01-29T00:24:40.343Z,1.50
2019-01-29T00:27:08.719Z,1.20
2019-01-29T00:29:37.089Z,1.60
2019-01-29T00:32:05.487Z,1.73
2019-01-29T00:34:33.870Z,2.23
2019-01-29T00:37:02.247Z,1.83
2019-01-29T00:39:30.716Z,2.00
2019-01-29T00:41:59.093Z,3.53
2019-01-29T00:44:27.495Z,2.40
2019-01-29T00:46:55.990Z,2.50
2019-01-29T00:49:24.360Z,1.73
2019-01-29T00:51:52.770Z,2.10
2019-01-29T00:54:21.169Z,2.30
2019-01-29T00:56:49.545Z,2.30
2019-01-29T00:59:17.850Z,1.97
2019-01-29T01:01:46.236Z,3.20
2019-01-29T01:04:14.624Z,2.43
2019-01-29T01:06:43.066Z,2.17
2019-01-29T01:09:11.351Z,2.30
2019-01-29T01:11:39.672Z,2.43
2019-01-29T01:14:08.029Z,2.27
2019-01-29T01:16:36.435Z,2.43
2019-01-29T01:19:04.795Z,2.60
2019-01-29T01:21:33.178Z,2.10
2019-01-29T01:24:01.538Z,3.97
2019-01-29T01:26:30.052Z,3.30
2019-01-29T01:28:58.403Z,2.57
2019-01-29T01:31:26.771Z,3.93
2019-01-29T01:33:55.063Z,4.53
2019-01-29T01:36:23.366Z,5.10
2019-01-29T01:38:51.765Z,2.80
2019-01-29T01:41:20.154Z,4.53
2019-01-29T01:43:48.532Z,2.20
2019-01-29T01:46:16.849Z,2.43
2019-01-29T01:48:45.225Z,4.03
2019-01-29T01:51:13.610Z,3.97
2019-01-29T01:53:42.000Z,3.67
2019-01-29T01:56:10.354Z,2.30
2019-01-29T01:58:38.646Z,3.63
2019-01-29T02:01:06.969Z,2.37
2019-01-29T02:03:35.352Z,3.80
2019-01-29T02:06:03.720Z,3.47
2019-01-29T02:08:32.013Z,2.43
2019-01-29T02:11:00.407Z,2.67
2019-01-29T02:13:28.756Z,3.33
2019-01-29T02:15:57.160Z,2.87
2019-01-29T02:18:25.515Z,3.93
2019-01-29T02:20:53.819Z,6.07
2019-01-29T02:23:22.211Z,3.57
2019-01-29T02:25:50.600Z,4.73
2019-01-29T02:28:18.913Z,3.70
2019-01-29T02:30:47.270Z,4.10
2019-01-29T02:33:15.770Z,4.73
2019-01-29T02:35:44.154Z,1.93
2019-01-29T02:38:12.519Z,3.67
2019-01-29T02:40:40.827Z,2.70
2019-01-29T02:43:09.215Z,4.70
2019-01-29T02:45:37.614Z,3.40
2019-01-29T02:48:06.007Z,3.30
2019-01-29T02:50:34.385Z,2.83
2019-01-29T02:53:02.750Z,4.43
2019-01-29T02:55:31.054Z,3.43
2019-01-29T02:57:59.428Z,4.50
2019-01-29T03:00:28.094Z,4.27
2019-01-29T03:02:56.388Z,3.07
2019-01-29T03:05:24.685Z,5.33
2019-01-29T03:07:53.066Z,3.30
2019-01-29T03:10:23.514Z,4.87
2019-01-29T03:12:51.787Z,2.97
2019-01-29T03:15:25.330Z,3.20
2019-01-29T03:17:53.726Z,3.80
2019-01-29T03:20:22.102Z,4.13
2019-01-29T03:22:50.491Z,3.10
2019-01-29T03:25:18.860Z,5.80
2019-01-29T03:27:47.250Z,3.33
2019-01-29T03:30:17.773Z,3.73
2019-01-29T03:32:46.166Z,9.30
2019-01-29T03:35:14.542Z,5.00
2019-01-29T03:37:42.912Z,4.37
2019-01-29T03:40:13.957Z,2.70
2019-01-29T03:42:42.450Z,4.77
2019-01-29T03:45:13.499Z,4.77
2019-01-29T03:47:41.962Z,3.63
2019-01-29T03:50:13.531Z,4.23
2019-01-29T03:52:41.872Z,4.53
2019-01-29T03:55:10.543Z,3.30
2019-01-29T03:57:38.913Z,3.30
2019-01-29T04:00:10.663Z,5.27
2019-01-29T04:02:39.035Z,3.90
2019-01-29T04:05:07.408Z,5.83
2019-01-29T04:07:35.776Z,4.13
2019-01-29T04:10:06.420Z,4.57
2019-01-29T04:12:34.785Z,3.60
2019-01-29T04:15:03.527Z,4.53
2019-01-29T04:17:31.897Z,3.23
2019-01-29T04:20:00.287Z,3.70
2019-01-29T04:22:28.655Z,3.67
2019-01-29T04:24:56.956Z,4.87
2019-01-29T04:27:25.335Z,3.37
2019-01-29T04:29:54.540Z,4.57
2019-01-29T04:32:22.916Z,3.00
2019-01-29T04:34:51.298Z,6.73
2019-01-29T04:37:19.682Z,3.23
2019-01-29T04:39:48.051Z,4.20
2019-01-29T04:42:16.434Z,3.67
2019-01-29T04:44:44.808Z,2.77
2019-01-29T04:47:13.190Z,3.73
2019-01-29T04:49:41.542Z,3.33
2019-01-29T04:52:09.926Z,4.00
2019-01-29T04:54:38.211Z,2.67
2019-01-29T04:57:06.484Z,4.67
2019-01-29T04:59:34.871Z,3.00
2019-01-29T05:02:03.307Z,5.17
2019-01-29T05:04:31.685Z,3.57
2019-01-29T05:07:00.057Z,3.73
2019-01-29T05:09:28.471Z,2.70
2019-01-29T05:11:56.897Z,3.70
2019-01-29T05:14:25.258Z,3.50
2019-01-29T05:16:53.656Z,5.33
2019-01-29T05:19:22.053Z,3.20
2019-01-29T05:21:50.451Z,5.20
2019-01-29T05:24:18.829Z,2.43
2019-01-29T05:26:47.139Z,4.50
2019-01-29T05:29:15.490Z,2.20
2019-01-29T05:31:43.826Z,3.90
2019-01-29T05:34:12.200Z,3.70
2019-01-29T05:36:40.575Z,2.77
2019-01-29T05:39:09.208Z,2.00
2019-01-29T05:41:37.537Z,3.30
2019-01-29T05:44:05.917Z,3.80
2019-01-29T05:46:34.318Z,2.33
2019-01-29T05:49:02.703Z,3.03
2019-01-29T05:51:31.093Z,3.47
2019-01-29T05:53:59.471Z,5.50
2019-01-29T05:56:27.771Z,2.83
2019-01-29T05:58:56.138Z,5.57
2019-01-29T06:01:24.524Z,3.80
2019-01-29T06:03:52.889Z,3.30
2019-01-29T06:06:21.173Z,2.93
2019-01-29T06:08:49.683Z,3.07
2019-01-29T06:11:17.994Z,2.90
2019-01-29T06:13:46.444Z,2.70
2019-01-29T06:16:14.795Z,2.70
2019-01-29T06:18:43.195Z,3.37
2019-01-29T06:21:11.561Z,2.87
2019-01-29T06:23:40.058Z,4.17
2019-01-29T06:26:08.514Z,3.97
2019-01-29T06:28:36.947Z,2.63
2019-01-29T06:31:05.235Z,4.53
2019-01-29T06:33:33.512Z,3.73
2019-01-29T06:36:01.897Z,3.87
2019-01-29T06:38:30.261Z,3.17
2019-01-29T06:40:58.633Z,4.27
2019-01-29T06:43:26.943Z,4.00
2019-01-29T06:45:55.301Z,3.10
2019-01-29T06:48:23.655Z,3.27
2019-01-29T06:50:52.031Z,5.10
2019-01-29T06:53:20.363Z,3.80
2019-01-29T06:55:48.768Z,6.27
2019-01-29T06:58:17.131Z,4.30
2019-01-29T07:00:45.490Z,4.53
2019-01-29T07:03:13.858Z,4.57
2019-01-29T07:05:42.259Z,5.13
2019-01-29T07:08:10.626Z,4.63
2019-01-29T07:10:38.935Z,5.83
2019-01-29T07:13:07.337Z,8.20
2019-01-29T07:15:52.854Z,6.50
2019-01-29T07:18:22.893Z,9.60
2019-01-29T07:20:51.284Z,5.43
2019-01-29T07:23:19.657Z,5.43
2019-01-29T07:25:48.107Z,5.57
2019-01-29T07:28:16.494Z,7.40
2019-01-29T07:30:44.892Z,6.10
2019-01-29T07:33:13.280Z,6.77
2019-01-29T07:35:41.680Z,5.87
2019-01-29T07:38:10.127Z,6.03
2019-01-29T07:40:38.535Z,7.23
2019-01-29T07:43:06.929Z,7.23
2019-01-29T07:45:35.306Z,5.77
2019-01-29T07:48:03.690Z,7.17
2019-01-29T07:50:32.111Z,6.03
2019-01-29T07:53:00.451Z,5.70
2019-01-29T07:55:28.773Z,6.20
2019-01-29T07:57:57.205Z,6.93
2019-01-29T08:00:25.582Z,6.07
2019-01-29T08:02:53.962Z,6.50
2019-01-29T08:05:22.296Z,5.30
2019-01-29T08:07:50.672Z,6.27
2019-01-29T08:10:19.020Z,5.97
2019-01-29T08:12:47.406Z,7.13
2019-01-29T08:15:19.142Z,6.70
2019-01-29T08:17:47.568Z,8.97
2019-01-29T08:20:16.915Z,6.30
2019-01-29T08:22:45.304Z,5.77
2019-01-29T08:25:13.684Z,7.03
2019-01-29T08:27:42.041Z,5.80
2019-01-29T08:30:15.702Z,5.87
2019-01-29T08:32:44.134Z,6.23
2019-01-29T08:35:13.940Z,5.27
2019-01-29T08:37:42.267Z,6.27
2019-01-29T08:40:12.507Z,11.43
2019-01-29T08:42:40.910Z,5.87
2019-01-29T08:45:17.702Z,6.70
2019-01-29T08:47:46.154Z,8.87
2019-01-29T08:50:24.916Z,7.00
2019-01-29T08:52:53.279Z,6.00
2019-01-29T08:55:21.650Z,6.20
2019-01-29T08:57:49.994Z,5.40
2019-01-29T09:00:22.149Z,5.20
2019-01-29T09:02:50.470Z,7.13
2019-01-29T09:05:18.872Z,10.50
2019-01-29T09:07:47.250Z,7.93
2019-01-29T09:10:17.824Z,6.47
2019-01-29T09:12:46.204Z,8.03
2019-01-29T09:15:18.823Z,8.43
2019-01-29T09:17:48.986Z,9.63
2019-01-29T09:20:23.870Z,8.77
2019-01-29T09:22:52.244Z,10.90
2019-01-29T09:25:22.725Z,7.33
2019-01-29T09:27:50.774Z,5.50
2019-01-29T09:30:22.685Z,12.90
2019-01-29T09:32:51.047Z,9.80
2019-01-29T09:35:19.418Z,7.30
2019-01-29T09:37:47.766Z,7.63
2019-01-29T09:40:21.158Z,6.60
2019-01-29T09:42:49.600Z,10.13
2019-01-29T09:45:19.428Z,8.10
2019-01-29T09:47:47.834Z,8.27
2019-01-29T09:50:23.703Z,6.13
2019-01-29T09:52:52.504Z,6.47
2019-01-29T09:55:29.136Z,10.00
2019-01-29T09:57:52.550Z,7.37
2019-01-29T10:00:29.379Z,6.60
2019-01-29T10:02:57.715Z,5.77
2019-01-29T10:05:26.039Z,5.93
2019-01-29T10:07:54.360Z,6.77
2019-01-29T10:10:22.702Z,7.37
2019-01-29T10:12:50.999Z,7.83
2019-01-29T10:15:47.477Z,8.00
2019-01-29T10:18:15.933Z,6.33
2019-01-29T10:20:44.301Z,6.27
2019-01-29T10:23:12.693Z,4.57
2019-01-29T10:25:41.080Z,5.00
2019-01-29T10:28:09.463Z,3.77
2019-01-29T10:30:37.740Z,6.43
2019-01-29T10:33:06.049Z,4.03
2019-01-29T10:35:34.427Z,5.07
2019-01-29T10:38:02.801Z,4.60
2019-01-29T10:40:31.111Z,4.47
2019-01-29T10:42:59.491Z,6.77
2019-01-29T10:45:29.435Z,6.97
2019-01-29T10:47:58.010Z,8.37
2019-01-29T10:50:28.917Z,4.87
2019-01-29T10:52:57.292Z,5.27
2019-01-29T10:55:25.674Z,5.40
2019-01-29T10:57:54.058Z,4.20
2019-01-29T11:00:25.779Z,4.37
2019-01-29T11:02:54.220Z,5.43
2019-01-29T11:05:23.085Z,4.23
2019-01-29T11:07:51.368Z,7.27
2019-01-29T11:10:20.918Z,7.23
2019-01-29T11:12:49.271Z,5.53
2019-01-29T11:15:26.496Z,4.60
2019-01-29T11:17:54.802Z,4.90
2019-01-29T11:20:23.256Z,5.53
2019-01-29T11:22:51.636Z,7.90
2019-01-29T11:25:25.615Z,8.00
2019-01-29T11:27:53.999Z,5.73
2019-01-29T11:30:25.148Z,6.67
2019-01-29T11:32:53.544Z,4.60
2019-01-29T11:35:21.914Z,4.37
2019-01-29T11:37:50.555Z,4.53
2019-01-29T11:40:30.677Z,6.90
2019-01-29T11:42:59.017Z,4.47
2019-01-29T11:45:36.149Z,4.13
2019-01-29T11:48:04.431Z,5.00
2019-01-29T11:50:32.749Z,4.50
2019-01-29T11:53:01.221Z,5.60
2019-01-29T11:55:29.603Z,4.77
2019-01-29T11:57:57.971Z,6.73
2019-01-29T12:00:32.967Z,6.03
2019-01-29T12:03:01.278Z,4.87
2019-01-29T12:05:29.729Z,4.13
2019-01-29T12:07:58.100Z,5.97
2019-01-29T12:10:26.385Z,5.00
2019-01-29T12:12:54.701Z,4.40
2019-01-29T12:15:23.048Z,5.10
2019-01-29T12:17:51.475Z,5.07
2019-01-29T12:20:20.590Z,5.70
2019-01-29T12:22:48.949Z,3.53
2019-01-29T12:25:17.363Z,5.30
2019-01-29T12:27:45.740Z,6.23
2019-01-29T12:30:22.844Z,3.70
2019-01-29T12:32:51.741Z,4.97
2019-01-29T12:35:20.126Z,3.67
2019-01-29T12:37:48.510Z,3.67
2019-01-29T12:40:16.895Z,3.47
2019-01-29T12:42:45.272Z,3.43
2019-01-29T12:45:16.783Z,3.70
2019-01-29T12:47:45.305Z,6.30
2019-01-29T12:50:28.541Z,5.43
2019-01-29T12:52:58.587Z,5.40
2019-01-29T12:55:26.973Z,4.37
2019-01-29T12:57:55.346Z,4.07
2019-01-29T13:00:25.372Z,3.97
2019-01-29T13:02:53.812Z,4.03
2019-01-29T13:05:22.200Z,4.17
2019-01-29T13:07:50.492Z,4.40
2019-01-29T13:10:20.992Z,3.93
2019-01-29T13:12:49.380Z,3.50
2019-01-29T13:15:23.937Z,4.00
2019-01-29T13:17:52.315Z,4.17
2019-01-29T13:20:20.611Z,3.23
2019-01-29T13:22:49.052Z,4.13
2019-01-29T13:25:17.328Z,3.50
2019-01-29T13:27:45.624Z,4.77
2019-01-29T13:30:31.326Z,6.47
2019-01-29T13:32:59.644Z,3.70
2019-01-29T13:35:30.922Z,4.00
2019-01-29T13:37:59.245Z,6.43
2019-01-29T13:40:27.624Z,3.57
2019-01-29T13:42:55.988Z,3.27
2019-01-29T13:45:24.294Z,3.07
2019-01-29T13:47:52.655Z,3.50
2019-01-29T13:50:26.650Z,3.80
2019-01-29T13:52:55.019Z,3.00
2019-01-29T13:55:23.575Z,3.53
2019-01-29T13:57:51.944Z,4.17
2019-01-29T14:00:23.446Z,3.73
2019-01-29T14:02:51.782Z,3.23
2019-01-29T14:05:20.115Z,3.50
2019-01-29T14:07:48.463Z,3.57
2019-01-29T14:10:17.477Z,4.40
2019-01-29T14:12:45.820Z,3.50
2019-01-29T14:15:33.261Z,4.17
2019-01-29T14:18:01.558Z,3.27
2019-01-29T14:20:29.942Z,4.43
2019-01-29T14:22:58.314Z,5.37
2019-01-29T14:25:26.717Z,4.33
2019-01-29T14:27:55.088Z,3.40
2019-01-29T14:30:25.802Z,3.77
2019-01-29T14:32:54.147Z,4.40
2019-01-29T14:35:22.427Z,5.30
2019-01-29T14:38:12.360Z,2.93
2019-01-29T14:40:40.689Z,3.60
2019-01-29T14:43:24.502Z,4.03
2019-01-29T14:45:52.875Z,4.13
2019-01-29T14:48:21.257Z,4.40
2019-01-29T14:50:49.608Z,2.83
2019-01-29T14:53:17.909Z,3.17
2019-01-29T14:55:46.229Z,5.43
2019-01-29T14:58:14.602Z,3.33
2019-01-29T15:00:42.954Z,3.83
2019-01-29T15:03:11.393Z,3.20
2019-01-29T15:05:39.943Z,3.17
2019-01-29T15:08:08.331Z,3.87
2019-01-29T15:10:36.682Z,6.73
2019-01-29T15:13:05.063Z,4.00
2019-01-29T15:15:37.751Z,3.13
2019-01-29T15:18:13.548Z,4.10
2019-01-29T15:20:41.836Z,3.47
2019-01-29T15:23:10.144Z,5.20
2019-01-29T15:25:38.452Z,3.17
2019-01-29T15:28:06.835Z,2.90
2019-01-29T15:30:35.203Z,3.97
2019-01-29T15:33:03.590Z,3.23
2019-01-29T15:35:31.968Z,3.53
2019-01-29T15:38:00.349Z,5.13
2019-01-29T15:40:28.731Z,3.77
2019-01-29T15:42:57.107Z,4.90
2019-01-29T15:45:27.221Z,3.97
2019-01-29T15:47:55.591Z,4.03
2019-01-29T15:50:26.591Z,3.43
2019-01-29T15:52:54.933Z,3.00
2019-01-29T15:55:23.245Z,3.10
2019-01-29T15:57:51.618Z,2.93
2019-01-29T16:00:28.771Z,3.00
2019-01-29T16:02:57.141Z,3.17
2019-01-29T16:05:31.266Z,5.30
2019-01-29T16:07:59.563Z,4.03
2019-01-29T16:10:39.183Z,6.53
2019-01-29T16:13:00.767Z,5.00
2019-01-29T16:15:29.055Z,6.70
2019-01-29T16:17:57.514Z,5.23
2019-01-29T16:20:25.852Z,4.93
2019-01-29T16:22:54.178Z,3.90
2019-01-29T16:25:25.250Z,6.43
2019-01-29T16:27:53.632Z,4.60
2019-01-29T16:30:29.517Z,4.10
2019-01-29T16:32:57.880Z,4.17
2019-01-29T16:35:31.466Z,3.93
2019-01-29T16:37:59.913Z,3.97
2019-01-29T16:40:33.909Z,4.40
2019-01-29T16:43:02.287Z,4.97
2019-01-29T16:45:34.759Z,4.27
2019-01-29T16:48:03.282Z,3.93
2019-01-29T16:50:31.589Z,3.40
2019-01-29T16:53:00.028Z,3.87
2019-01-29T16:55:28.427Z,3.87
2019-01-29T16:57:56.801Z,4.40
2019-01-29T17:00:32.891Z,3.70
2019-01-29T17:03:01.387Z,4.47
2019-01-29T17:05:30.423Z,3.33
2019-01-29T17:07:59.065Z,3.47
2019-01-29T17:10:32.371Z,3.23
2019-01-29T17:13:00.724Z,3.50
2019-01-29T17:15:30.988Z,3.70
2019-01-29T17:18:00.394Z,3.37
2019-01-29T17:20:33.758Z,4.50
2019-01-29T17:23:02.059Z,4.20
2019-01-29T17:25:30.460Z,4.97
2019-01-29T17:27:58.825Z,5.43
2019-01-29T17:30:32.818Z,4.93
2019-01-29T17:33:01.197Z,4.40
2019-01-29T17:35:29.559Z,4.33
2019-01-29T17:37:57.888Z,4.10
2019-01-29T17:40:26.234Z,5.37
2019-01-29T17:42:54.598Z,4.60
2019-01-29T17:45:28.400Z,3.70
2019-01-29T17:47:56.719Z,4.33
2019-01-29T17:50:36.687Z,3.97
2019-01-29T17:53:05.143Z,3.80
2019-01-29T17:55:34.760Z,4.47
2019-01-29T17:58:03.383Z,4.03
2019-01-29T18:00:33.382Z,5.97
2019-01-29T18:03:01.769Z,4.03
2019-01-29T18:05:30.144Z,5.40
2019-01-29T18:07:58.545Z,4.00
2019-01-29T18:10:26.921Z,5.73
2019-01-29T18:12:55.312Z,4.93
2019-01-29T18:15:26.990Z,5.40
2019-01-29T18:17:55.460Z,5.27
2019-01-29T18:20:23.902Z,4.43
2019-01-29T18:22:52.205Z,4.50
2019-01-29T18:25:20.665Z,5.03
2019-01-29T18:27:49.035Z,5.17
2019-01-29T18:30:26.103Z,5.17
2019-01-29T18:32:54.481Z,4.53
2019-01-29T18:35:22.875Z,5.13
2019-01-29T18:37:51.259Z,5.53
2019-01-29T18:40:25.197Z,4.90
2019-01-29T18:42:53.618Z,5.53
2019-01-29T18:45:21.922Z,5.40
2019-01-29T18:47:50.271Z,4.93
2019-01-29T18:50:19.718Z,5.13
2019-01-29T18:52:48.018Z,5.23
2019-01-29T18:55:16.422Z,5.00
2019-01-29T18:57:44.781Z,5.23
2019-01-29T19:00:24.461Z,6.23
2019-01-29T19:02:52.803Z,6.23
2019-01-29T19:05:23.182Z,6.20
2019-01-29T19:07:51.599Z,6.30
2019-01-29T19:10:20.996Z,5.27
2019-01-29T19:12:49.882Z,5.43
2019-01-29T19:15:24.178Z,6.27
2019-01-29T19:17:52.591Z,5.53
2019-01-29T19:20:25.482Z,5.80
2019-01-29T19:22:53.857Z,5.57
2019-01-29T19:25:22.164Z,6.37
2019-01-29T19:27:50.564Z,6.23
2019-01-29T19:30:21.851Z,6.10
2019-01-29T19:32:50.248Z,5.20
2019-01-29T19:35:18.627Z,6.23
2019-01-29T19:37:47.009Z,7.33
2019-01-29T19:40:17.041Z,6.00
2019-01-29T19:42:45.439Z,6.67
2019-01-29T19:45:22.401Z,6.60
2019-01-29T19:47:50.942Z,7.00
2019-01-29T19:50:21.425Z,6.00
2019-01-29T19:52:49.957Z,7.30
2019-01-29T19:55:18.333Z,7.80
2019-01-29T19:57:46.709Z,6.27
2019-01-29T20:00:18.108Z,6.90
2019-01-29T20:02:49.578Z,7.23
2019-01-29T20:05:18.029Z,6.33
2019-01-29T20:07:46.446Z,7.37
2019-01-29T20:10:16.954Z,7.70
2019-01-29T20:12:45.340Z,8.03
2019-01-29T20:15:16.169Z,8.00
2019-01-29T20:17:44.612Z,8.40
2019-01-29T20:20:16.609Z,8.37
2019-01-29T20:22:44.945Z,7.53
2019-01-29T20:25:13.260Z,7.60
2019-01-29T20:27:41.577Z,7.93
2019-01-29T20:30:13.562Z,8.07
2019-01-29T20:32:41.937Z,6.83
2019-01-29T20:35:10.319Z,7.83
2019-01-29T20:37:38.676Z,6.40
2019-01-29T20:40:10.247Z,7.70
2019-01-29T20:42:38.634Z,7.07
2019-01-29T20:45:09.562Z,9.30
2019-01-29T20:47:37.917Z,8.53
2019-01-29T20:50:09.531Z,7.53
2019-01-29T20:52:37.858Z,7.47
2019-01-29T20:55:25.776Z,7.07
2019-01-29T20:57:54.458Z,7.83
2019-01-29T21:00:28.149Z,7.00
2019-01-29T21:02:56.596Z,8.30
2019-01-29T21:05:25.026Z,6.80
2019-01-29T21:07:53.673Z,7.63
2019-01-29T21:10:23.182Z,8.00
2019-01-29T21:12:51.589Z,7.27
2019-01-29T21:15:21.916Z,7.47
2019-01-29T21:17:52.814Z,7.33
2019-01-29T21:20:23.483Z,8.43
2019-01-29T21:22:51.863Z,8.07
2019-01-29T21:25:20.664Z,6.83
2019-01-29T21:27:49.033Z,7.17
2019-01-29T21:30:20.528Z,7.60
2019-01-29T21:32:48.861Z,6.77
2019-01-29T21:35:17.273Z,6.70
2019-01-29T21:37:45.634Z,7.03
2019-01-29T21:40:15.878Z,7.13
2019-01-29T21:42:44.358Z,7.27
2019-01-29T21:45:23.154Z,6.60
2019-01-29T21:47:53.513Z,8.47
2019-01-29T21:50:24.058Z,6.83
2019-01-29T21:52:52.436Z,6.83
2019-01-29T21:55:20.831Z,6.70
2019-01-29T21:57:49.278Z,7.70
2019-01-29T22:00:20.905Z,7.13
2019-01-29T22:02:49.251Z,7.43
2019-01-29T22:05:17.658Z,6.33
2019-01-29T22:07:46.024Z,6.80
2019-01-29T22:10:15.840Z,7.70
2019-01-29T22:12:44.229Z,6.87
2019-01-29T22:15:24.114Z,6.77
2019-01-29T22:17:52.465Z,7.30
2019-01-29T22:20:22.597Z,9.60
2019-01-29T22:22:51.048Z,8.97
2019-01-29T22:25:20.715Z,9.50
2019-01-29T22:27:49.093Z,7.63
2019-01-29T22:30:35.058Z,8.70
2019-01-29T22:33:03.464Z,7.87
2019-01-29T22:35:32.193Z,7.33
2019-01-29T22:38:00.689Z,7.43
2019-01-29T22:40:30.508Z,8.10
2019-01-29T22:43:00.041Z,7.10
2019-01-29T22:45:28.432Z,7.93
2019-01-29T22:47:56.826Z,6.50
2019-01-29T22:50:29.911Z,8.13
2019-01-29T22:52:58.322Z,8.30
2019-01-29T22:55:26.693Z,6.93
2019-01-29T22:57:55.065Z,8.27
2019-01-29T23:00:47.479Z,7.57
2019-01-29T23:03:16.625Z,8.00
2019-01-29T23:05:47.039Z,7.37
2019-01-29T23:08:15.415Z,7.40
2019-01-29T23:10:44.037Z,8.13
2019-01-29T23:13:12.367Z,8.43
2019-01-29T23:15:40.728Z,8.20
2019-01-29T23:18:09.108Z,7.93
2019-01-29T23:20:40.644Z,9.97
2019-01-29T23:23:08.932Z,8.43
2019-01-29T23:25:37.310Z,8.50
2019-01-29T23:28:05.687Z,7.10
2019-01-29T23:30:34.072Z,7.80
2019-01-29T23:33:02.475Z,8.20
2019-01-29T23:35:30.905Z,7.70
2019-01-29T23:37:59.272Z,6.90
2019-01-29T23:40:27.661Z,7.43
2019-01-29T23:42:56.028Z,6.40
2019-01-29T23:45:24.395Z,7.17
2019-01-29T23:47:54.368Z,6.50
2019-01-29T23:50:22.724Z,5.77
2019-01-29T23:52:51.018Z,7.03
2019-01-29T23:55:19.298Z,5.50
2019-01-29T23:57:47.685Z,6.63
